createdAt,value
2018-06-27T00:00:35.642Z,67.1
2018-06-27T00:01:35.068Z,67.2
2018-06-27T00:03:33.877Z,67.4
2018-06-27T00:04:33.183Z,66.3
2018-06-27T00:05:32.395Z,67.2
2018-06-27T00:06:31.708Z,65.7
2018-06-27T00:07:31.018Z,66.1
2018-06-27T00:08:30.447Z,66.7
2018-06-27T00:09:29.857Z,66.6
2018-06-27T00:10:28.954Z,66.7
2018-06-27T00:11:28.162Z,66.4
2018-06-27T00:12:27.865Z,66.3
2018-06-27T00:13:27.171Z,66
2018-06-27T00:14:26.482Z,65.8
2018-06-27T00:15:25.969Z,65.3
2018-06-27T00:16:25.175Z,65.8
2018-06-27T00:17:24.376Z,66
2018-06-27T00:19:23.330Z,66.3
2018-06-27T00:20:22.565Z,65.6
2018-06-27T00:21:21.989Z,65.5
2018-06-27T00:22:21.194Z,65.6
2018-06-27T00:23:20.399Z,65.7
2018-06-27T00:24:20.003Z,65.6
2018-06-27T00:25:19.317Z,65.7
2018-06-27T00:26:18.413Z,65.9
2018-06-27T00:27:17.609Z,66.2
2018-06-27T00:28:17.202Z,66.5
2018-06-27T00:29:16.194Z,66.7
2018-06-27T00:30:15.896Z,67.4
2018-06-27T00:31:14.988Z,66.4
2018-06-27T00:32:14.404Z,66.6
2018-06-27T00:32:44.636Z,66.6
2018-06-27T00:33:15.143Z,67
2018-06-27T00:34:12.953Z,67
2018-06-27T00:35:12.453Z,67.1
2018-06-27T00:36:11.878Z,67.5
2018-06-27T00:37:11.076Z,67.5
2018-06-27T00:38:10.390Z,67.3
2018-06-27T00:39:09.698Z,67.5
2018-06-27T00:40:09.129Z,67.8
2018-06-27T00:41:07.945Z,67.9
2018-06-27T00:42:07.324Z,68.2
2018-06-27T00:42:37.551Z,68.2
2018-06-27T00:43:08.075Z,68.2
2018-06-27T00:43:38.492Z,68.2
2018-06-27T00:44:09.015Z,68.6
2018-06-27T00:44:39.643Z,68.6
2018-06-27T00:46:04.624Z,68.7
2018-06-27T00:47:04.240Z,68.8
2018-06-27T00:49:02.730Z,69.9
2018-06-27T00:50:01.841Z,69.5
2018-06-27T00:51:01.053Z,69.6
2018-06-27T00:52:00.888Z,69.7
2018-06-27T00:52:59.665Z,69.6
2018-06-27T00:53:30.074Z,69.6
2018-06-27T00:54:58.579Z,70
2018-06-27T00:55:58.021Z,69.8
2018-06-27T00:56:57.435Z,70.4
2018-06-27T00:57:56.737Z,70.6
2018-06-27T00:58:55.620Z,70.7
2018-06-27T00:59:55.221Z,70.8
2018-06-27T01:00:54.420Z,71.3
2018-06-27T01:01:53.522Z,71
2018-06-27T01:02:52.935Z,70.9
2018-06-27T01:03:52.249Z,70.8
2018-06-27T01:04:51.454Z,71.1
2018-06-27T01:05:50.768Z,71.1
2018-06-27T01:06:50.074Z,71.7
2018-06-27T01:07:49.387Z,71.4
2018-06-27T01:08:48.698Z,72.4
2018-06-27T01:09:48.400Z,72.5
2018-06-27T01:10:47.712Z,71.8
2018-06-27T01:11:46.631Z,72.1
2018-06-27T01:12:45.983Z,72.1
2018-06-27T01:13:45.398Z,72.6
2018-06-27T01:14:44.508Z,73
2018-06-27T01:15:43.820Z,72.9
2018-06-27T01:16:43.133Z,73.5
2018-06-27T01:17:42.547Z,72.6
2018-06-27T01:18:42.146Z,72.3
2018-06-27T01:19:41.240Z,73.1
2018-06-27T01:20:40.538Z,73.4
2018-06-27T01:21:39.737Z,73
2018-06-27T01:22:39.178Z,73.3
2018-06-27T01:23:09.688Z,73.3
2018-06-27T01:23:40.203Z,72.8
2018-06-27T01:24:10.834Z,72.8
2018-06-27T01:24:41.343Z,72.9
2018-06-27T01:25:11.958Z,72.9
2018-06-27T01:25:42.364Z,72.9
2018-06-27T01:26:12.987Z,72.9
2018-06-27T01:26:43.225Z,73.5
2018-06-27T01:27:13.447Z,73.5
2018-06-27T01:28:34.901Z,73.2
2018-06-27T01:29:34.313Z,73.4
2018-06-27T01:30:33.531Z,73.3
2018-06-27T01:31:32.850Z,73.3
2018-06-27T01:32:32.164Z,73.4
2018-06-27T01:33:31.365Z,73.4
2018-06-27T01:34:30.677Z,73.6
2018-06-27T01:35:29.874Z,73.4
2018-06-27T01:36:00.499Z,73.4
2018-06-27T01:36:31.018Z,73.4
2018-06-27T01:37:01.533Z,73.4
2018-06-27T01:37:31.849Z,73.5
2018-06-27T01:38:02.371Z,73.5
2018-06-27T01:38:32.993Z,73.5
2018-06-27T01:39:27.055Z,73.4
2018-06-27T01:40:26.158Z,73.8
2018-06-27T01:41:25.462Z,73.9
2018-06-27T01:42:24.759Z,74.3
2018-06-27T01:43:23.964Z,74
2018-06-27T01:44:23.382Z,74.3
2018-06-27T01:45:22.694Z,74.3
2018-06-27T01:46:21.898Z,74.3
2018-06-27T01:47:21.208Z,74.9
2018-06-27T01:48:20.410Z,74.9
2018-06-27T01:49:19.720Z,75.2
2018-06-27T01:50:19.023Z,75.1
2018-06-27T01:51:18.432Z,75.3
2018-06-27T01:52:17.527Z,75.4
2018-06-27T01:53:16.841Z,75.2
2018-06-27T01:54:16.545Z,75.3
2018-06-27T01:55:15.756Z,75.2
2018-06-27T01:57:14.135Z,75.5
2018-06-27T01:58:13.123Z,75.4
2018-06-27T01:59:12.731Z,75.4
2018-06-27T02:00:11.936Z,75.8
2018-06-27T02:01:11.246Z,76.1
2018-06-27T02:02:10.659Z,75.6
2018-06-27T02:03:09.570Z,75.7
2018-06-27T02:04:08.876Z,75.6
2018-06-27T02:05:08.476Z,75.6
2018-06-27T02:06:07.785Z,75.6
2018-06-27T02:07:06.994Z,75.7
2018-06-27T02:08:06.357Z,75.7
2018-06-27T02:09:05.551Z,75.9
2018-06-27T02:10:04.864Z,75.5
2018-06-27T02:11:04.063Z,75.5
2018-06-27T02:12:03.374Z,75.6
2018-06-27T02:13:02.691Z,75.4
2018-06-27T02:14:01.894Z,76.1
2018-06-27T02:15:00.779Z,75.6
2018-06-27T02:16:00.600Z,75.4
2018-06-27T02:16:59.903Z,75.3
2018-06-27T02:18:58.004Z,75.6
2018-06-27T02:19:57.603Z,75.5
2018-06-27T02:20:56.708Z,75.7
2018-06-27T02:21:56.136Z,75.6
2018-06-27T02:22:26.646Z,75.6
2018-06-27T02:23:54.647Z,75.7
2018-06-27T02:24:53.953Z,75.8
2018-06-27T02:25:53.257Z,75.8
2018-06-27T02:26:52.066Z,75.9
2018-06-27T02:27:51.380Z,76.1
2018-06-27T02:28:51.083Z,76.1
2018-06-27T02:29:50.084Z,76.3
2018-06-27T02:30:49.516Z,76.3
2018-06-27T02:31:48.839Z,76.3
2018-06-27T02:32:19.363Z,76.3
2018-06-27T02:33:47.169Z,76.3
2018-06-27T02:34:46.274Z,76.5
2018-06-27T02:35:45.610Z,76.4
2018-06-27T02:36:45.042Z,76.6
2018-06-27T02:37:44.146Z,76.7
2018-06-27T02:38:43.355Z,77.2
2018-06-27T02:39:42.707Z,76.8
2018-06-27T02:40:41.939Z,77.1
2018-06-27T02:41:41.147Z,77.1
2018-06-27T02:42:40.860Z,77.3
2018-06-27T02:43:39.666Z,77.3
2018-06-27T02:44:38.991Z,77.4
2018-06-27T02:45:38.215Z,77.5
2018-06-27T02:47:36.923Z,77.8
2018-06-27T02:48:36.039Z,77.8
2018-06-27T02:49:35.373Z,78
2018-06-27T02:50:34.835Z,78.1
2018-06-27T02:51:34.075Z,78.3
2018-06-27T02:52:33.410Z,78.3
2018-06-27T02:53:32.634Z,78.4
2018-06-27T02:54:31.922Z,78.2
2018-06-27T02:55:31.157Z,78.4
2018-06-27T02:56:30.096Z,78.4
2018-06-27T02:57:29.830Z,78.2
2018-06-27T02:58:29.057Z,78.8
2018-06-27T02:59:27.881Z,79
2018-06-27T03:00:27.338Z,78.9
2018-06-27T03:01:26.781Z,79
2018-06-27T03:01:57.341Z,79
2018-06-27T03:02:28.063Z,79.2
2018-06-27T03:02:58.561Z,79.2
2018-06-27T03:03:28.817Z,79.3
2018-06-27T03:03:59.470Z,79.3
2018-06-27T03:04:29.738Z,79.3
2018-06-27T03:04:59.996Z,79.3
2018-06-27T03:06:22.788Z,79.5
2018-06-27T03:07:22.151Z,79.8
2018-06-27T03:09:20.524Z,79.9
2018-06-27T03:10:19.963Z,79.9
2018-06-27T03:11:19.299Z,80.1
2018-06-27T03:12:18.653Z,80.2
2018-06-27T03:12:48.903Z,80.2
2018-06-27T03:13:19.443Z,80.2
2018-06-27T03:13:49.592Z,80.2
2018-06-27T03:14:20.247Z,80.1
2018-06-27T03:14:50.789Z,80.1
2018-06-27T03:15:21.437Z,80.3
2018-06-27T03:15:51.984Z,80.3
2018-06-27T03:16:22.416Z,80.3
2018-06-27T03:16:52.957Z,80.3
2018-06-27T03:18:14.047Z,80.3
2018-06-27T03:19:13.371Z,80.5
2018-06-27T03:20:12.611Z,80.6
2018-06-27T03:21:11.840Z,80.5
2018-06-27T03:22:10.778Z,80.8
2018-06-27T03:23:10.115Z,81.1
2018-06-27T03:24:09.446Z,80.8
2018-06-27T03:25:08.886Z,80.8
2018-06-27T03:26:08.209Z,80.8
2018-06-27T03:27:07.050Z,81
2018-06-27T03:28:06.380Z,81
2018-06-27T03:29:05.705Z,81.1
2018-06-27T03:30:04.929Z,81
2018-06-27T03:31:04.063Z,80.9
2018-06-27T03:32:03.400Z,81
2018-06-27T03:33:02.832Z,81.1
2018-06-27T03:34:01.947Z,81.2
2018-06-27T03:35:01.179Z,81.1
2018-06-27T03:36:00.312Z,81.2
2018-06-27T03:36:59.524Z,81.6
2018-06-27T03:37:58.985Z,81.6
2018-06-27T03:38:58.216Z,81.8
2018-06-27T03:39:57.668Z,81.8
2018-06-27T03:40:56.612Z,81.9
2018-06-27T03:41:55.942Z,82
2018-06-27T03:42:55.274Z,81.9
2018-06-27T03:43:54.230Z,82
2018-06-27T03:44:53.847Z,82.3
2018-06-27T03:45:52.958Z,82.4
2018-06-27T03:46:23.387Z,82.4
2018-06-27T03:46:54.030Z,82.6
2018-06-27T03:47:51.345Z,82.6
2018-06-27T03:48:50.664Z,82.7
2018-06-27T03:49:50.087Z,82.8
2018-06-27T03:50:49.309Z,82.9
2018-06-27T03:51:48.432Z,82.9
2018-06-27T03:52:47.764Z,82.9
2018-06-27T03:53:46.698Z,82.7
2018-06-27T03:54:46.209Z,82.7
2018-06-27T03:55:16.957Z,82.7
2018-06-27T03:55:47.491Z,83.1
2018-06-27T03:56:17.939Z,83.1
2018-06-27T03:57:43.834Z,83
2018-06-27T03:58:43.166Z,82.9
2018-06-27T03:59:42.597Z,83.4
2018-06-27T04:00:41.539Z,83.4
2018-06-27T04:01:40.665Z,83.3
2018-06-27T04:02:39.998Z,83.5
2018-06-27T04:03:39.333Z,83.6
2018-06-27T04:04:38.653Z,83.9
2018-06-27T04:05:37.874Z,83.9
2018-06-27T04:06:37.209Z,83.8
2018-06-27T04:07:36.437Z,83.7
2018-06-27T04:08:35.452Z,84.2
2018-06-27T04:09:34.679Z,84
2018-06-27T04:10:34.116Z,83.9
2018-06-27T04:11:33.447Z,83.8
2018-06-27T04:12:32.476Z,83.9
2018-06-27T04:14:31.233Z,84.8
2018-06-27T04:15:30.279Z,84.6
2018-06-27T04:16:29.708Z,84.7
2018-06-27T04:17:28.548Z,84.6
2018-06-27T04:18:27.765Z,85
2018-06-27T04:19:27.119Z,84.7
2018-06-27T04:20:26.567Z,84.9
2018-06-27T04:21:25.799Z,84.7
2018-06-27T04:22:25.138Z,84.8
2018-06-27T04:23:23.971Z,84.8
2018-06-27T04:24:23.296Z,84.6
2018-06-27T04:25:22.631Z,84.5
2018-06-27T04:26:21.748Z,84.4
2018-06-27T04:27:21.053Z,84.5
2018-06-27T04:28:20.479Z,84.7
2018-06-27T04:29:19.701Z,84.4
2018-06-27T04:30:18.640Z,84.5
2018-06-27T04:31:17.988Z,84.3
2018-06-27T04:32:17.207Z,84.2
2018-06-27T04:33:16.526Z,84.2
2018-06-27T04:34:15.925Z,84.3
2018-06-27T04:35:14.862Z,84.3
2018-06-27T04:36:14.292Z,84.2
2018-06-27T04:37:13.656Z,84.1
2018-06-27T04:38:12.874Z,84.2
2018-06-27T04:39:12.096Z,84.1
2018-06-27T04:40:11.437Z,84.1
2018-06-27T04:41:10.661Z,84.2
2018-06-27T04:41:41.096Z,84.2
2018-06-27T04:42:11.420Z,84.1
2018-06-27T04:43:08.742Z,84.3
2018-06-27T04:44:08.103Z,84.4
2018-06-27T04:45:07.219Z,84.2
2018-06-27T04:46:06.447Z,84.1
2018-06-27T04:47:05.776Z,84.1
2018-06-27T04:48:05.002Z,84.1
2018-06-27T04:49:04.337Z,84.1
2018-06-27T04:50:03.457Z,83.9
2018-06-27T04:51:02.778Z,83.7
2018-06-27T04:51:33.215Z,83.7
2018-06-27T04:52:03.968Z,83.8
2018-06-27T04:52:34.116Z,83.8
2018-06-27T04:53:04.882Z,83.7
2018-06-27T04:54:07.358Z,83.8
2018-06-27T04:54:36.002Z,83.8
2018-06-27T04:55:59.096Z,83.5
2018-06-27T04:57:57.425Z,83.8
2018-06-27T04:58:56.698Z,83.6
2018-06-27T04:59:56.030Z,83.6
2018-06-27T05:00:55.464Z,83.5
2018-06-27T05:01:54.690Z,83.4
2018-06-27T05:02:53.513Z,83.5
2018-06-27T05:03:52.841Z,83.4
2018-06-27T05:04:52.266Z,83.5
2018-06-27T05:05:51.497Z,83.3
2018-06-27T05:07:50.216Z,83.5
2018-06-27T05:08:49.046Z,83.6
2018-06-27T05:09:48.165Z,83.9
2018-06-27T05:10:47.596Z,83.6
2018-06-27T05:11:47.032Z,83.6
2018-06-27T05:12:46.244Z,83.6
2018-06-27T05:13:45.186Z,83.4
2018-06-27T05:14:44.692Z,83.4
2018-06-27T05:16:43.030Z,83.6
2018-06-27T05:17:42.251Z,83.7
2018-06-27T05:19:40.968Z,83.9
2018-06-27T05:20:40.195Z,84.1
2018-06-27T05:21:39.551Z,83.6
2018-06-27T05:22:09.952Z,83.6
2018-06-27T05:23:37.970Z,83.2
2018-06-27T05:24:37.299Z,83.1
2018-06-27T05:25:36.122Z,83.3
2018-06-27T05:26:35.459Z,83.3
2018-06-27T05:27:35.144Z,83.2
2018-06-27T05:28:34.171Z,83
2018-06-27T05:29:33.497Z,82.5
2018-06-27T05:30:32.828Z,82.7
2018-06-27T05:31:31.654Z,82.5
2018-06-27T05:32:30.933Z,82.3
2018-06-27T05:33:01.379Z,82.3
2018-06-27T05:33:31.708Z,82.5
2018-06-27T05:34:02.329Z,82.5
2018-06-27T05:34:33.033Z,82.4
2018-06-27T05:35:03.562Z,82.4
2018-06-27T05:36:27.956Z,81.9
2018-06-27T05:37:27.388Z,82.2
2018-06-27T05:38:26.616Z,82
2018-06-27T05:39:25.728Z,81.8
2018-06-27T05:40:25.239Z,81.8
2018-06-27T05:41:24.465Z,81.8
2018-06-27T05:42:23.792Z,82.1
2018-06-27T05:43:22.750Z,81.5
2018-06-27T05:43:53.383Z,81.5
2018-06-27T05:44:24.047Z,81.2
2018-06-27T05:44:54.572Z,81.2
2018-06-27T05:46:20.471Z,81
2018-06-27T05:47:19.904Z,81.4
2018-06-27T05:48:18.908Z,81.1
2018-06-27T05:49:18.634Z,81.1
2018-06-27T05:50:17.476Z,81.2
2018-06-27T05:51:16.813Z,81.1
2018-06-27T05:52:16.041Z,81.2
2018-06-27T05:53:15.378Z,81
2018-06-27T05:54:14.491Z,81.2
2018-06-27T05:55:14.117Z,81.2
2018-06-27T05:56:13.036Z,81.3
2018-06-27T05:57:12.370Z,81.6
2018-06-27T05:58:11.831Z,81.4
2018-06-27T05:59:10.815Z,81.5
2018-06-27T06:00:10.146Z,81.2
2018-06-27T06:01:09.576Z,81.5
2018-06-27T06:02:08.592Z,81
2018-06-27T06:03:08.222Z,81
2018-06-27T06:04:07.448Z,80.3
2018-06-27T06:05:06.284Z,80.4
2018-06-27T06:06:05.730Z,80.7
2018-06-27T06:07:04.956Z,80.3
2018-06-27T06:08:04.189Z,79.5
2018-06-27T06:09:03.523Z,79
2018-06-27T06:10:02.653Z,79.6
2018-06-27T06:11:02.083Z,78.8
2018-06-27T06:12:01.605Z,78.8
2018-06-27T06:13:00.835Z,78.9
2018-06-27T06:13:59.952Z,79.2
2018-06-27T06:14:59.287Z,78.5
2018-06-27T06:15:29.555Z,78.5
2018-06-27T06:15:59.692Z,78.8
2018-06-27T06:16:57.575Z,78.5
2018-06-27T06:17:57.015Z,78.8
2018-06-27T06:18:56.226Z,78.5
2018-06-27T06:19:55.451Z,78.6
2018-06-27T06:20:54.680Z,78.5
2018-06-27T06:21:54.005Z,78.3
2018-06-27T06:22:53.396Z,78.3
2018-06-27T06:23:52.728Z,77.8
2018-06-27T06:24:51.660Z,77.6
2018-06-27T06:25:50.896Z,77.9
2018-06-27T06:26:50.226Z,77.7
2018-06-27T06:27:49.464Z,77.9
2018-06-27T06:28:48.593Z,77.4
2018-06-27T06:29:48.322Z,77.1
2018-06-27T06:30:47.443Z,77.3
2018-06-27T06:31:17.872Z,77.3
2018-06-27T06:32:45.782Z,77.6
2018-06-27T06:33:45.302Z,77.5
2018-06-27T06:34:44.733Z,77.5
2018-06-27T06:35:44.057Z,77.4
2018-06-27T06:36:43.273Z,77.8
2018-06-27T06:37:42.600Z,77.9
2018-06-27T06:38:41.709Z,77.8
2018-06-27T06:39:41.023Z,77.5
2018-06-27T06:40:40.579Z,78
2018-06-27T06:41:39.565Z,78.2
2018-06-27T06:42:39.000Z,78.1
2018-06-27T06:43:38.112Z,78
2018-06-27T06:44:37.445Z,77.3
2018-06-27T06:46:35.564Z,77
2018-06-27T06:47:35.395Z,76.9
2018-06-27T06:48:34.616Z,76.8
2018-06-27T06:49:33.736Z,76.5
2018-06-27T06:50:33.069Z,76.5
2018-06-27T06:51:32.402Z,76.8
2018-06-27T06:52:31.233Z,77
2018-06-27T06:53:31.096Z,76.6
2018-06-27T06:54:30.107Z,76.2
2018-06-27T06:55:29.436Z,76.3
2018-06-27T06:56:28.880Z,76.6
2018-06-27T06:57:28.208Z,76.5
2018-06-27T06:58:27.535Z,76.3
2018-06-27T07:00:25.650Z,76
2018-06-27T07:01:25.262Z,76.2
2018-06-27T07:02:24.490Z,76.1
2018-06-27T07:03:23.928Z,76.6
2018-06-27T07:04:22.768Z,75.8
2018-06-27T07:05:22.383Z,76
2018-06-27T07:06:21.606Z,76.4
2018-06-27T07:07:20.842Z,75.9
2018-06-27T07:08:20.288Z,75.2
2018-06-27T07:09:19.629Z,74.9
2018-06-27T07:10:18.952Z,74.6
2018-06-27T07:10:49.595Z,74.6
2018-06-27T07:11:20.214Z,75.1
2018-06-27T07:11:50.575Z,75.1
2018-06-27T07:12:21.105Z,74.9
2018-06-27T07:12:51.349Z,74.9
2018-06-27T07:13:21.923Z,75.6
2018-06-27T07:13:52.360Z,75.6
2018-06-27T07:15:15.264Z,76
2018-06-27T07:16:14.499Z,75.7
2018-06-27T07:17:13.619Z,73.6
2018-06-27T07:18:12.841Z,73.6
2018-06-27T07:19:12.167Z,73.4
2018-06-27T07:20:11.494Z,72.4
2018-06-27T07:20:42.024Z,72.4
2018-06-27T07:21:12.771Z,73
2018-06-27T07:21:43.449Z,73
2018-06-27T07:22:14.095Z,72.1
2018-06-27T07:22:44.744Z,72.1
2018-06-27T07:24:08.757Z,72.5
2018-06-27T07:26:07.585Z,73.3
2018-06-27T07:27:06.927Z,72.7
2018-06-27T07:28:05.939Z,73.4
2018-06-27T07:29:05.273Z,73
2018-06-27T07:30:04.900Z,70.8
2018-06-27T07:31:03.735Z,71
2018-06-27T07:32:03.464Z,70.4
2018-06-27T07:33:02.809Z,69.8
2018-06-27T07:34:02.040Z,70.1
2018-06-27T07:35:00.979Z,70.5
2018-06-27T07:36:00.962Z,70.1
2018-06-27T07:36:59.923Z,70.5
2018-06-27T07:37:58.753Z,70.4
2018-06-27T07:38:58.480Z,71.1
2018-06-27T07:39:57.812Z,71.8
2018-06-27T07:40:57.037Z,70.9
2018-06-27T07:41:56.151Z,71.3
2018-06-27T07:42:55.482Z,71
2018-06-27T07:43:54.811Z,70.3
2018-06-27T07:44:54.242Z,70.7
2018-06-27T07:45:53.463Z,70.5
2018-06-27T07:46:52.812Z,71.1
2018-06-27T07:47:52.045Z,70.2
2018-06-27T07:48:51.374Z,70.4
2018-06-27T07:49:50.831Z,70
2018-06-27T07:50:50.213Z,69.6
2018-06-27T07:51:49.553Z,69.3
2018-06-27T07:52:48.887Z,69
2018-06-27T07:53:47.825Z,68.8
2018-06-27T07:54:18.264Z,68.8
2018-06-27T07:54:48.903Z,68.8
2018-06-27T07:55:19.446Z,68.8
2018-06-27T07:56:45.858Z,65.9
2018-06-27T07:57:45.199Z,66.3
2018-06-27T07:58:44.535Z,64.8
2018-06-27T07:59:43.764Z,64.6
2018-06-27T08:00:43.102Z,63.7
2018-06-27T08:01:42.533Z,64.3
2018-06-27T08:02:41.859Z,63.5
2018-06-27T08:03:41.089Z,64.1
2018-06-27T08:04:40.815Z,63.6
2018-06-27T08:05:11.462Z,63.6
2018-06-27T08:05:42.103Z,64.2
2018-06-27T08:06:12.541Z,64.2
2018-06-27T08:06:42.635Z,64
2018-06-27T08:07:38.437Z,64.2
2018-06-27T08:08:37.675Z,63.9
2018-06-27T08:09:36.898Z,63.8
2018-06-27T08:10:36.738Z,64.7
2018-06-27T08:11:35.966Z,65.3
2018-06-27T08:12:35.480Z,65.1
2018-06-27T08:13:34.746Z,64.8
2018-06-27T08:14:34.072Z,64.6
2018-06-27T08:15:33.006Z,63.5
2018-06-27T08:16:32.226Z,60.8
2018-06-27T08:17:32.065Z,61.6
2018-06-27T08:18:31.380Z,61.9
2018-06-27T08:19:30.311Z,61.2
2018-06-27T08:20:29.747Z,61.5
2018-06-27T08:21:28.973Z,61.7
2018-06-27T08:22:28.191Z,61.8
2018-06-27T08:23:27.638Z,62.3
2018-06-27T08:24:27.021Z,61.4
2018-06-27T08:25:26.645Z,61.6
2018-06-27T08:26:26.029Z,60.4
2018-06-27T08:27:25.334Z,59.8
2018-06-27T08:28:24.672Z,60.7
2018-06-27T08:29:23.899Z,60.8
2018-06-27T08:30:23.019Z,60.9
2018-06-27T08:31:22.454Z,60.6
2018-06-27T08:32:21.781Z,60.2
2018-06-27T08:33:21.041Z,60.6
2018-06-27T08:34:20.660Z,60.5
2018-06-27T08:35:20.107Z,60.6
2018-06-27T08:36:19.360Z,60
2018-06-27T08:37:18.480Z,59.8
2018-06-27T08:38:17.828Z,59
2018-06-27T08:39:17.052Z,58.8
2018-06-27T08:40:16.383Z,59.2
2018-06-27T08:41:15.715Z,57.5
2018-06-27T08:42:15.081Z,56.9
2018-06-27T08:43:14.520Z,58.1
2018-06-27T08:44:13.746Z,57.2
2018-06-27T08:45:13.090Z,56.8
2018-06-27T08:46:12.451Z,55.5
2018-06-27T08:47:11.785Z,56.5
2018-06-27T08:48:11.632Z,55.8
2018-06-27T08:49:10.567Z,56.4
2018-06-27T08:50:10.011Z,56.6
2018-06-27T08:50:40.276Z,56.6
2018-06-27T08:51:10.553Z,56.1
2018-06-27T08:51:40.979Z,56.1
2018-06-27T08:53:08.109Z,55.7
2018-06-27T08:54:07.341Z,55.8
2018-06-27T08:55:07.068Z,55.5
2018-06-27T08:57:05.388Z,54.7
2018-06-27T08:58:04.718Z,55.4
2018-06-27T08:59:04.442Z,56.5
2018-06-27T09:00:03.767Z,57
2018-06-27T09:01:02.885Z,55.4
2018-06-27T09:01:33.650Z,55.4
2018-06-27T09:02:04.292Z,56.3
2018-06-27T09:02:34.725Z,56.3
2018-06-27T09:03:05.262Z,56.4
2018-06-27T09:03:35.923Z,56.4
2018-06-27T09:04:06.575Z,56.5
2018-06-27T09:04:37.123Z,56.5
2018-06-27T09:06:00.010Z,55.6
2018-06-27T09:06:59.353Z,55.3
2018-06-27T09:07:58.753Z,56.2
2018-06-27T09:08:58.083Z,55.4
2018-06-27T09:09:57.520Z,56.1
2018-06-27T09:10:56.852Z,55.2
2018-06-27T09:11:56.184Z,56
2018-06-27T09:12:55.513Z,55.7
2018-06-27T09:13:54.967Z,55.2
2018-06-27T09:14:54.083Z,56.1
2018-06-27T09:15:53.360Z,56
2018-06-27T09:16:53.088Z,55.9
2018-06-27T09:17:51.911Z,54.7
2018-06-27T09:18:51.636Z,54.5
2018-06-27T09:19:50.755Z,53.9
2018-06-27T09:20:50.591Z,54.3
2018-06-27T09:21:49.816Z,55.4
2018-06-27T09:22:49.156Z,54.9
2018-06-27T09:23:48.370Z,55.7
2018-06-27T09:24:47.697Z,57.2
2018-06-27T09:25:47.029Z,55.7
2018-06-27T09:26:46.363Z,55.8
2018-06-27T09:27:46.096Z,56.1
2018-06-27T09:28:45.107Z,56.2
2018-06-27T09:29:44.731Z,56.9
2018-06-27T09:30:44.068Z,54.4
2018-06-27T09:31:43.296Z,54.1
2018-06-27T09:32:43.036Z,54.8
2018-06-27T09:33:13.181Z,54.8
2018-06-27T09:33:43.823Z,54.4
2018-06-27T09:34:14.416Z,54.4
2018-06-27T09:35:40.819Z,56.3
2018-06-27T09:36:40.556Z,54.3
2018-06-27T09:38:39.393Z,55.2
2018-06-27T09:39:38.638Z,53.4
2018-06-27T09:40:37.981Z,53.2
2018-06-27T09:41:37.323Z,52.6
2018-06-27T09:42:36.541Z,52.3
2018-06-27T09:43:35.877Z,52.2
2018-06-27T09:44:06.412Z,52.2
2018-06-27T09:44:37.054Z,52.9
2018-06-27T09:45:07.304Z,52.9
2018-06-27T09:45:37.839Z,52.5
2018-06-27T09:46:07.968Z,52.5
2018-06-27T09:47:33.484Z,52.6
2018-06-27T09:48:32.820Z,52.8
2018-06-27T09:49:32.154Z,52.9
2018-06-27T09:50:31.591Z,52.3
2018-06-27T09:51:31.036Z,52.4
2018-06-27T09:52:30.373Z,52.3
2018-06-27T09:53:30.215Z,52.8
2018-06-27T09:54:29.340Z,51.1
2018-06-27T09:55:28.776Z,51
2018-06-27T09:55:59.318Z,51
2018-06-27T09:58:26.831Z,50.6
2018-06-27T09:59:26.561Z,50.7
2018-06-27T10:00:25.883Z,50.4
2018-06-27T10:01:25.103Z,50.9
2018-06-27T10:02:24.325Z,52.1
2018-06-27T10:03:23.959Z,53.4
2018-06-27T10:04:23.410Z,52.2
2018-06-27T10:05:22.526Z,53.1
2018-06-27T10:06:21.857Z,53.3
2018-06-27T10:07:21.579Z,52.1
2018-06-27T10:08:20.910Z,51.5
2018-06-27T10:09:20.251Z,52.5
2018-06-27T10:10:19.695Z,50.3
2018-06-27T10:11:18.916Z,51.4
2018-06-27T10:12:18.364Z,51.8
2018-06-27T10:13:17.712Z,53.2
2018-06-27T10:14:17.052Z,51.6
2018-06-27T10:15:16.674Z,52.9
2018-06-27T10:16:16.004Z,50.9
2018-06-27T10:17:15.274Z,52.5
2018-06-27T10:18:14.774Z,52.2
2018-06-27T10:19:14.211Z,50.5
2018-06-27T10:20:13.828Z,50.8
2018-06-27T10:21:13.169Z,49.1
2018-06-27T10:22:12.478Z,49.6
2018-06-27T10:23:11.884Z,48.5
2018-06-27T10:24:11.107Z,48.8
2018-06-27T10:25:10.619Z,47.5
2018-06-27T10:26:09.949Z,48.4
2018-06-27T10:27:09.305Z,49.5
2018-06-27T10:28:09.034Z,49.4
2018-06-27T10:29:08.261Z,50.1
2018-06-27T10:30:07.813Z,50.9
2018-06-27T10:31:07.255Z,50.9
2018-06-27T10:32:06.472Z,49.8
2018-06-27T10:33:05.797Z,50.4
2018-06-27T10:34:05.141Z,51.8
2018-06-27T10:35:04.874Z,49.5
2018-06-27T10:36:03.886Z,51
2018-06-27T10:37:03.623Z,50.7
2018-06-27T10:38:03.082Z,50.6
2018-06-27T10:39:02.409Z,50.5
2018-06-27T10:40:02.048Z,51.2
2018-06-27T10:41:01.166Z,49.9
2018-06-27T10:42:00.682Z,48.4
2018-06-27T10:42:31.215Z,48.4
2018-06-27T10:43:01.871Z,48
2018-06-27T10:43:32.413Z,48
2018-06-27T10:44:03.049Z,48.9
2018-06-27T10:44:33.942Z,48.9
2018-06-27T10:45:58.363Z,49.1
2018-06-27T10:46:57.595Z,46.5
2018-06-27T10:47:57.320Z,48.7
2018-06-27T10:48:56.845Z,46
2018-06-27T10:49:56.278Z,45.4
2018-06-27T10:50:55.732Z,45.4
2018-06-27T10:52:54.453Z,46.2
2018-06-27T10:53:25.199Z,46.2
2018-06-27T10:53:55.449Z,45.7
2018-06-27T10:54:26.097Z,45.7
2018-06-27T10:55:52.499Z,45.3
2018-06-27T10:56:51.935Z,45.4
2018-06-27T10:57:51.574Z,44.7
2018-06-27T10:58:50.689Z,44.7
2018-06-27T10:59:50.532Z,45.2
2018-06-27T11:00:49.970Z,46.6
2018-06-27T11:01:49.412Z,45.1
2018-06-27T11:02:48.743Z,46.3
2018-06-27T11:03:48.176Z,45.2
2018-06-27T11:04:47.613Z,45
2018-06-27T11:05:46.838Z,45.4
2018-06-27T11:06:46.283Z,48
2018-06-27T11:07:46.019Z,47.1
2018-06-27T11:08:45.473Z,47.2
2018-06-27T11:09:44.810Z,45.7
2018-06-27T11:10:44.149Z,46.2
2018-06-27T11:11:43.473Z,45.1
2018-06-27T11:12:42.910Z,44.9
2018-06-27T11:13:42.743Z,45.8
2018-06-27T11:14:42.077Z,45.9
2018-06-27T11:15:41.516Z,44.6
2018-06-27T11:16:40.733Z,44.9
2018-06-27T11:17:40.461Z,43.9
2018-06-27T11:18:39.678Z,44.8
2018-06-27T11:19:39.295Z,44.2
2018-06-27T11:20:38.636Z,45.6
2018-06-27T11:21:38.255Z,46.1
2018-06-27T11:22:37.650Z,44.4
2018-06-27T11:23:36.985Z,44.9
2018-06-27T11:24:07.227Z,44.9
2018-06-27T11:24:37.769Z,44.9
2018-06-27T11:25:08.415Z,44.9
2018-06-27T11:25:39.066Z,46.9
2018-06-27T11:26:09.713Z,46.9
2018-06-27T11:26:40.255Z,46.1
2018-06-27T11:27:10.675Z,46.1
2018-06-27T11:27:41.222Z,46.4
2018-06-27T11:28:11.869Z,46.4
2018-06-27T11:29:33.734Z,45.8
2018-06-27T11:30:33.066Z,45.3
2018-06-27T11:32:32.287Z,45.7
2018-06-27T11:33:31.500Z,45.9
2018-06-27T11:34:31.222Z,44.1
2018-06-27T11:35:30.560Z,44
2018-06-27T11:36:29.689Z,43.7
2018-06-27T11:37:00.120Z,43.7
2018-06-27T11:37:30.663Z,42.6
2018-06-27T11:38:01.200Z,42.6
2018-06-27T11:39:28.500Z,41.9
2018-06-27T11:40:27.830Z,43.1
2018-06-27T11:41:27.555Z,42.7
2018-06-27T11:42:26.691Z,43.9
2018-06-27T11:43:26.303Z,44.2
2018-06-27T11:44:25.468Z,45.7
2018-06-27T11:45:25.288Z,46.4
2018-06-27T11:46:24.754Z,46.2
2018-06-27T11:47:23.870Z,44.9
2018-06-27T11:48:23.591Z,45.1
2018-06-27T11:49:23.025Z,46.3
2018-06-27T11:50:22.355Z,46.5
2018-06-27T11:51:21.796Z,45.8
2018-06-27T11:52:21.253Z,43.7
2018-06-27T11:53:21.256Z,45.8
2018-06-27T11:54:20.294Z,46.5
2018-06-27T11:55:20.031Z,46
2018-06-27T11:56:19.361Z,43.9
2018-06-27T11:57:18.804Z,45
2018-06-27T11:58:17.919Z,46.3
2018-06-27T11:59:17.865Z,47.1
2018-06-27T12:00:17.308Z,45.1
2018-06-27T12:01:16.553Z,45.7
2018-06-27T12:02:15.886Z,47
2018-06-27T12:03:15.211Z,44.2
2018-06-27T12:04:15.054Z,47.1
2018-06-27T12:05:14.393Z,45.9
2018-06-27T12:06:13.625Z,46
2018-06-27T12:07:13.261Z,46.1
2018-06-27T12:08:12.487Z,45.8
2018-06-27T12:09:12.322Z,46.3
2018-06-27T12:10:11.652Z,44.8
2018-06-27T12:11:11.096Z,47.3
2018-06-27T12:12:10.526Z,45.8
2018-06-27T12:13:09.852Z,47.2
2018-06-27T12:14:09.582Z,43.9
2018-06-27T12:15:08.813Z,46.1
2018-06-27T12:16:08.647Z,45.9
2018-06-27T12:17:07.987Z,47.8
2018-06-27T12:18:07.325Z,46.4
2018-06-27T12:19:06.663Z,47.7
2018-06-27T12:20:06.004Z,46.1
2018-06-27T12:21:05.837Z,47.8
2018-06-27T12:22:05.165Z,45.3
2018-06-27T12:23:04.387Z,48.3
2018-06-27T12:24:03.825Z,47.9
2018-06-27T12:25:03.658Z,47.7
2018-06-27T12:25:34.317Z,47.7
2018-06-27T12:26:04.952Z,47.8
2018-06-27T12:27:02.169Z,46.6
2018-06-27T12:28:02.008Z,45.9
2018-06-27T12:29:01.341Z,45.1
2018-06-27T12:30:00.958Z,47.4
2018-06-27T12:31:00.294Z,45.5
2018-06-27T12:31:59.521Z,46.3
2018-06-27T12:32:59.473Z,42
2018-06-27T12:33:58.698Z,45.7
2018-06-27T12:34:57.921Z,41.2
2018-06-27T12:35:28.734Z,41.2
2018-06-27T12:35:58.879Z,40.1
2018-06-27T12:36:29.517Z,40.1
2018-06-27T12:36:59.675Z,42.3
2018-06-27T12:37:30.326Z,42.3
2018-06-27T12:38:00.969Z,41.5
2018-06-27T12:38:55.964Z,44.2
2018-06-27T12:39:55.298Z,40.2
2018-06-27T12:40:55.134Z,40.6